createdAt,value
2022-10-23T00:02:23.141Z,965.22
2022-10-23T00:07:24.545Z,965.18
2022-10-23T00:12:25.755Z,965.13
2022-10-23T00:17:27.507Z,965.21
2022-10-23T00:22:29.609Z,965.24
2022-10-23T00:27:31.187Z,965.24
2022-10-23T00:32:33.153Z,965.28
2022-10-23T00:37:34.904Z,965.24
2022-10-23T00:43:24.568Z,965.26
2022-10-23T00:47:39.103Z,965.25
2022-10-23T00:52:40.628Z,965.21
2022-10-23T00:57:42.415Z,965.24
2022-10-23T01:02:43.911Z,965.25
2022-10-23T01:07:45.727Z,965.2
2022-10-23T01:13:35.399Z,965.08
2022-10-23T01:19:25.079Z,965
2022-10-23T01:22:51.071Z,964.94
2022-10-23T01:27:52.994Z,964.91
2022-10-23T01:32:54.911Z,964.91
2022-10-23T01:37:56.922Z,964.94
2022-10-23T01:42:58.671Z,964.99
2022-10-23T01:48:00.374Z,964.97
2022-10-23T01:53:50.044Z,964.89
2022-10-23T01:58:03.491Z,964.86
2022-10-23T02:03:05.462Z,964.86
2022-10-23T02:08:06.741Z,964.74
2022-10-23T02:13:08.026Z,964.68
2022-10-23T02:18:09.513Z,964.57
2022-10-23T02:23:11.319Z,964.41
2022-10-23T02:28:12.978Z,964.38
2022-10-23T02:33:14.154Z,964.42
2022-10-23T02:38:15.855Z,964.39
2022-10-23T02:43:17.643Z,964.37
2022-10-23T02:48:19.125Z,964.45
2022-10-23T02:53:20.635Z,964.39
2022-10-23T02:58:21.925Z,964.3
2022-10-23T03:03:23.890Z,964.3
2022-10-23T03:08:26.047Z,964.19
2022-10-23T03:13:27.998Z,964.18
2022-10-23T03:18:29.440Z,964.24
2022-10-23T03:23:31.494Z,964.22
2022-10-23T03:28:33.467Z,964.18
2022-10-23T03:33:34.597Z,964.14
2022-10-23T03:38:36.277Z,964.04
2022-10-23T03:43:38.182Z,964.08
2022-10-23T03:48:39.333Z,964.17
2022-10-23T03:53:40.795Z,964.18
2022-10-23T03:58:42.667Z,964.21
2022-10-23T04:03:44.328Z,964.14
2022-10-23T04:08:45.645Z,964.12
2022-10-23T04:13:46.857Z,964.07
2022-10-23T04:18:48.494Z,964.07
2022-10-23T04:23:50.456Z,964.06
2022-10-23T04:28:51.904Z,964.08
2022-10-23T04:33:53.462Z,964.04
2022-10-23T04:38:55.307Z,964.06
2022-10-23T04:43:57.498Z,964.15
2022-10-23T04:48:59.486Z,964.13
2022-10-23T04:55:05.554Z,964.06
2022-10-23T04:59:22.178Z,964.05
2022-10-23T05:04:23.479Z,964
2022-10-23T05:09:25.028Z,963.93
2022-10-23T05:14:26.389Z,963.81
2022-10-23T05:19:28.530Z,963.7
2022-10-23T05:24:30.336Z,963.67
2022-10-23T05:29:31.914Z,963.68
2022-10-23T05:34:33.937Z,963.8
2022-10-23T05:39:36.026Z,963.84
2022-10-23T05:44:37.395Z,963.7
2022-10-23T05:49:38.573Z,963.79
2022-10-23T05:54:40.602Z,963.89
2022-10-23T05:59:42.756Z,963.87
2022-10-23T06:04:44.870Z,963.89
2022-10-23T06:09:46.677Z,963.78
2022-10-23T06:14:47.902Z,963.81
2022-10-23T06:19:49.389Z,963.92
2022-10-23T06:24:51.059Z,963.96
2022-10-23T06:29:52.670Z,963.96
2022-10-23T06:34:54.215Z,963.96
2022-10-23T06:40:43.847Z,963.89
2022-10-23T06:44:59.087Z,963.96
2022-10-23T06:49:59.535Z,963.96
2022-10-23T06:55:01.511Z,963.89
2022-10-23T07:00:03.194Z,963.86
2022-10-23T07:05:07.629Z,963.85
2022-10-23T07:10:06.659Z,963.88
2022-10-23T07:15:56.257Z,963.92
2022-10-23T07:20:09.802Z,963.94
2022-10-23T07:25:11.976Z,963.91
2022-10-23T07:30:13.277Z,963.81
2022-10-23T07:40:17.580Z,963.75
2022-10-23T07:45:19.546Z,963.84
2022-10-23T07:50:20.868Z,963.83
2022-10-23T07:55:23.045Z,963.97
2022-10-23T08:05:26.934Z,963.7
2022-10-23T08:10:28.950Z,963.64
2022-10-23T08:15:30.705Z,963.55
2022-10-23T08:20:32.432Z,963.6
2022-10-23T08:25:34.244Z,963.64
2022-10-23T08:30:36.302Z,963.59
2022-10-23T08:35:38.252Z,963.59
2022-10-23T08:40:39.892Z,963.63
2022-10-23T08:45:41.292Z,963.58
2022-10-23T08:50:43.494Z,963.53
2022-10-23T08:55:44.678Z,963.49
2022-10-23T09:00:46.856Z,963.5
2022-10-23T09:05:48.874Z,963.41
2022-10-23T09:10:51.351Z,963.31
2022-10-23T09:15:51.748Z,963.18
2022-10-23T09:20:53.467Z,963.08
2022-10-23T09:25:55.560Z,963.03
2022-10-23T09:30:57.123Z,963.04
2022-10-23T09:35:58.544Z,963.03
2022-10-23T09:40:59.870Z,963
2022-10-23T09:46:01.460Z,963.08
2022-10-23T09:51:03.526Z,962.96
2022-10-23T09:56:05.303Z,962.96
2022-10-23T10:01:06.993Z,962.87
2022-10-23T10:06:08.937Z,962.76
2022-10-23T10:11:10.505Z,962.78
2022-10-23T10:16:11.939Z,962.72
2022-10-23T10:21:13.280Z,962.72
2022-10-23T10:26:14.695Z,962.75
2022-10-23T10:31:16.632Z,962.73
2022-10-23T10:36:17.973Z,962.63
2022-10-23T10:42:07.552Z,962.58
2022-10-23T10:46:20.581Z,962.56
2022-10-23T10:51:22.030Z,962.48
2022-10-23T10:57:11.652Z,962.41
2022-10-23T11:01:25.785Z,962.23
2022-10-23T11:06:27.721Z,962.17
2022-10-23T11:11:29.495Z,962.09
2022-10-23T11:16:31.087Z,962.07
2022-10-23T11:21:32.835Z,961.96
2022-10-23T11:27:22.459Z,961.9
2022-10-23T11:56:44.383Z,961.68
2022-10-23T12:01:46.506Z,961.52
2022-10-23T12:21:52.676Z,961.47
2022-10-23T12:26:54.641Z,961.39
2022-10-23T12:31:56.307Z,961.33
2022-10-23T12:36:57.763Z,961.3
2022-10-23T12:41:59.626Z,961.22
2022-10-23T12:47:01.013Z,961.12
2022-10-23T12:52:50.692Z,961.04
2022-10-23T12:57:04.701Z,961.02
2022-10-23T13:02:06.642Z,961.02
2022-10-23T13:07:08.289Z,960.96
2022-10-23T13:12:09.811Z,961.07
2022-10-23T13:17:11.625Z,960.95
2022-10-23T13:22:13.353Z,960.89
2022-10-23T13:27:15.251Z,960.87
2022-10-23T13:32:17.245Z,960.81
2022-10-23T13:37:19.189Z,960.75
2022-10-23T13:43:08.847Z,960.78
2022-10-23T13:47:22.795Z,960.73
2022-10-23T13:52:24.218Z,960.71
2022-10-23T13:57:26.358Z,960.67
2022-10-23T14:02:28.653Z,960.69
2022-10-23T14:07:29.946Z,960.67
2022-10-23T14:12:31.907Z,960.62
2022-10-23T14:17:33.778Z,960.68
2022-10-23T14:22:34.984Z,960.7
2022-10-23T14:27:36.230Z,960.71
2022-10-23T14:32:37.899Z,960.64
2022-10-23T14:37:39.134Z,960.56
2022-10-23T14:42:40.710Z,960.49
2022-10-23T14:47:42.201Z,960.46
2022-10-23T14:52:43.628Z,960.45
2022-10-23T14:57:45.438Z,960.46
2022-10-23T15:02:46.578Z,960.36
2022-10-23T15:07:48.436Z,960.37
2022-10-23T15:12:55.298Z,960.37
2022-10-23T15:17:52.029Z,960.33
2022-10-23T15:23:41.662Z,960.39
2022-10-23T15:27:55.309Z,960.34
2022-10-23T15:32:57.357Z,960.3
2022-10-23T15:37:58.614Z,960.28
2022-10-23T15:43:00.422Z,960.27
2022-10-23T15:48:01.781Z,960.19
2022-10-23T15:53:03.190Z,960.1
2022-10-23T15:58:52.814Z,960.14
2022-10-23T16:03:06.679Z,960.13
2022-10-23T16:08:08.318Z,960.08
2022-10-23T16:13:57.966Z,960.02
2022-10-23T16:18:11.734Z,960.05
2022-10-23T16:23:13.138Z,960.04
2022-10-23T16:28:14.335Z,960.03
2022-10-23T16:33:16.553Z,960.03
2022-10-23T16:38:17.972Z,960.03
2022-10-23T16:43:19.893Z,960.05
2022-10-23T16:48:21.396Z,959.91
2022-10-23T16:53:23.275Z,959.93
2022-10-23T16:58:25.325Z,960.11
2022-10-23T17:03:26.682Z,960.19
2022-10-23T17:08:28.631Z,960.05
2022-10-23T17:13:30.518Z,960.04
2022-10-23T17:18:32.473Z,960.22
2022-10-23T17:23:34.277Z,960.27
2022-10-23T17:28:36.386Z,960.37
2022-10-23T17:33:38.053Z,960.42
2022-10-23T17:38:39.705Z,960.48
2022-10-23T17:43:41.764Z,960.54
2022-10-23T17:48:43.204Z,960.63
2022-10-23T17:53:44.869Z,960.39
2022-10-23T17:58:46.482Z,960.48
2022-10-23T18:03:53.143Z,960.28
2022-10-23T18:08:49.349Z,960.64
2022-10-23T18:13:51.203Z,960.31
2022-10-23T18:18:53.247Z,960.51
2022-10-23T18:23:55.113Z,960.48
2022-10-23T18:28:56.790Z,960.45
2022-10-23T18:33:58.745Z,960.49
2022-10-23T18:39:11.082Z,960.48
2022-10-23T18:44:02.671Z,960.44
2022-10-23T18:49:14.868Z,960.41
2022-10-23T18:54:05.865Z,960.45
2022-10-23T18:59:19.111Z,960.41
2022-10-23T19:04:09.496Z,960.36
2022-10-23T19:09:21.156Z,960.39
2022-10-23T19:14:12.390Z,960.5
2022-10-23T19:19:23.629Z,960.49
2022-10-23T19:24:16.025Z,960.48
2022-10-23T19:29:27.630Z,960.48
2022-10-23T19:34:18.659Z,960.48
2022-10-23T19:39:31.996Z,960.52
2022-10-23T19:44:22.337Z,960.59
2022-10-23T19:49:24.585Z,960.67
2022-10-23T19:54:26.627Z,960.56
2022-10-23T19:59:38.826Z,960.59
2022-10-23T20:04:30.608Z,960.63
2022-10-23T20:09:31.965Z,960.57
2022-10-23T20:14:33.478Z,960.61
2022-10-23T20:19:46.373Z,960.54
2022-10-23T20:25:35.940Z,960.42
2022-10-23T20:29:38.954Z,960.4
2022-10-23T20:34:40.783Z,960.49
2022-10-23T20:39:42.837Z,960.85
2022-10-23T20:44:44.693Z,961.13
2022-10-23T20:49:46.187Z,961.56
2022-10-23T20:54:48.113Z,961.59
2022-10-23T21:00:37.737Z,961.8
2022-10-23T21:04:51.917Z,962.02
2022-10-23T21:09:53.883Z,962.09
2022-10-23T21:14:55.791Z,962.16
2022-10-23T21:19:57.620Z,962.04
2022-10-23T21:24:59.450Z,961.93
2022-10-23T21:30:01.142Z,962.01
2022-10-23T21:35:03.200Z,962.06
2022-10-23T21:40:13.961Z,962.09
2022-10-23T21:45:15.925Z,962.13
2022-10-23T21:50:17.746Z,962.33
2022-10-23T21:55:19.039Z,962.48
2022-10-23T22:20:26.785Z,962.84
2022-10-23T22:25:28.776Z,962.92
2022-10-23T22:30:30.387Z,963.02
2022-10-23T22:35:32.390Z,963.11
2022-10-23T22:40:34.065Z,963.22
2022-10-23T22:45:45.692Z,963.21
2022-10-23T22:50:37.027Z,963.28
2022-10-23T22:55:38.288Z,963.33
2022-10-23T23:00:41.331Z,963.25
2022-10-23T23:10:42.784Z,963.43
2022-10-23T23:15:44.002Z,963.43
2022-10-23T23:20:46.078Z,963.43
2022-10-23T23:25:47.941Z,963.43
2022-10-23T23:30:49.588Z,963.47
2022-10-23T23:35:51.240Z,963.44
2022-10-23T23:40:52.631Z,963.44
2022-10-23T23:45:54.028Z,963.43
2022-10-23T23:50:55.232Z,963.47
2022-10-23T23:56:44.840Z,963.58
